sensor_id;sensor_type;location;lat;lon;timestamp;P1;durP1;ratioP1;P2;durP2;ratioP2
49910;SDS011;35803;53.096;5.844;2024-02-14T00:01:54;12.13;;;7.40;;
49910;SDS011;35803;53.096;5.844;2024-02-14T00:04:40;11.40;;;7.43;;
49910;SDS011;35803;53.096;5.844;2024-02-14T00:07:26;11.80;;;7.47;;
49910;SDS011;35803;53.096;5.844;2024-02-14T00:10:12;10.35;;;7.43;;
49910;SDS011;35803;53.096;5.844;2024-02-14T00:12:57;11.82;;;7.70;;
49910;SDS011;35803;53.096;5.844;2024-02-14T00:15:44;14.98;;;7.40;;
49910;SDS011;35803;53.096;5.844;2024-02-14T00:18:31;12.55;;;7.60;;
49910;SDS011;35803;53.096;5.844;2024-02-14T00:21:17;13.00;;;7.65;;
49910;SDS011;35803;53.096;5.844;2024-02-14T00:24:02;11.05;;;7.43;;
49910;SDS011;35803;53.096;5.844;2024-02-14T00:26:48;11.90;;;7.18;;
49910;SDS011;35803;53.096;5.844;2024-02-14T00:29:34;10.98;;;7.18;;
49910;SDS011;35803;53.096;5.844;2024-02-14T00:32:20;15.45;;;7.50;;
49910;SDS011;35803;53.096;5.844;2024-02-14T00:35:05;12.95;;;7.35;;
49910;SDS011;35803;53.096;5.844;2024-02-14T00:37:52;11.75;;;7.30;;
49910;SDS011;35803;53.096;5.844;2024-02-14T00:40:37;12.15;;;7.80;;
49910;SDS011;35803;53.096;5.844;2024-02-14T00:43:23;13.80;;;8.05;;
49910;SDS011;35803;53.096;5.844;2024-02-14T00:46:09;11.55;;;8.07;;
49910;SDS011;35803;53.096;5.844;2024-02-14T00:49:00;9.80;;;6.82;;
49910;SDS011;35803;53.096;5.844;2024-02-14T00:51:46;11.98;;;7.60;;
49910;SDS011;35803;53.096;5.844;2024-02-14T00:54:31;11.07;;;7.18;;
49910;SDS011;35803;53.096;5.844;2024-02-14T00:57:17;12.52;;;7.38;;
49910;SDS011;35803;53.096;5.844;2024-02-14T01:00:05;11.30;;;7.28;;
49910;SDS011;35803;53.096;5.844;2024-02-14T01:02:52;11.05;;;7.22;;
49910;SDS011;35803;53.096;5.844;2024-02-14T01:05:38;11.85;;;7.82;;
49910;SDS011;35803;53.096;5.844;2024-02-14T01:08:23;10.82;;;7.22;;
49910;SDS011;35803;53.096;5.844;2024-02-14T01:11:09;10.60;;;7.68;;
49910;SDS011;35803;53.096;5.844;2024-02-14T01:13:55;11.50;;;6.97;;
49910;SDS011;35803;53.096;5.844;2024-02-14T01:16:44;13.63;;;7.07;;
49910;SDS011;35803;53.096;5.844;2024-02-14T01:19:30;11.70;;;7.40;;
49910;SDS011;35803;53.096;5.844;2024-02-14T01:22:16;13.85;;;7.43;;
49910;SDS011;35803;53.096;5.844;2024-02-14T01:25:02;11.40;;;6.68;;
49910;SDS011;35803;53.096;5.844;2024-02-14T01:27:50;10.45;;;6.47;;
49910;SDS011;35803;53.096;5.844;2024-02-14T01:30:37;10.80;;;6.60;;
49910;SDS011;35803;53.096;5.844;2024-02-14T01:33:23;10.82;;;7.13;;
49910;SDS011;35803;53.096;5.844;2024-02-14T01:36:09;12.32;;;6.90;;
49910;SDS011;35803;53.096;5.844;2024-02-14T01:38:55;11.10;;;7.07;;
49910;SDS011;35803;53.096;5.844;2024-02-14T01:41:44;11.98;;;6.60;;
49910;SDS011;35803;53.096;5.844;2024-02-14T01:44:31;10.73;;;6.80;;
49910;SDS011;35803;53.096;5.844;2024-02-14T01:47:17;12.50;;;7.22;;
49910;SDS011;35803;53.096;5.844;2024-02-14T01:50:04;11.18;;;7.18;;
49910;SDS011;35803;53.096;5.844;2024-02-14T01:52:53;13.43;;;7.30;;
49910;SDS011;35803;53.096;5.844;2024-02-14T01:55:39;12.05;;;7.13;;
49910;SDS011;35803;53.096;5.844;2024-02-14T01:58:25;12.27;;;7.15;;
49910;SDS011;35803;53.096;5.844;2024-02-14T02:01:12;11.82;;;7.07;;
49910;SDS011;35803;53.096;5.844;2024-02-14T02:03:58;10.43;;;7.03;;
49910;SDS011;35803;53.096;5.844;2024-02-14T02:06:44;12.48;;;7.10;;
49910;SDS011;35803;53.096;5.844;2024-02-14T02:09:30;13.55;;;7.63;;
49910;SDS011;35803;53.096;5.844;2024-02-14T02:12:16;11.88;;;7.47;;
49910;SDS011;35803;53.096;5.844;2024-02-14T02:15:02;13.20;;;7.55;;
49910;SDS011;35803;53.096;5.844;2024-02-14T02:17:48;12.90;;;8.13;;
49910;SDS011;35803;53.096;5.844;2024-02-14T02:20:37;11.07;;;6.60;;
49910;SDS011;35803;53.096;5.844;2024-02-14T02:23:23;13.55;;;7.28;;
49910;SDS011;35803;53.096;5.844;2024-02-14T02:26:09;13.05;;;7.38;;
49910;SDS011;35803;53.096;5.844;2024-02-14T02:28:56;12.93;;;7.47;;
49910;SDS011;35803;53.096;5.844;2024-02-14T02:31:42;14.73;;;8.00;;
49910;SDS011;35803;53.096;5.844;2024-02-14T02:34:27;12.88;;;7.22;;
49910;SDS011;35803;53.096;5.844;2024-02-14T02:37:13;14.65;;;8.27;;
49910;SDS011;35803;53.096;5.844;2024-02-14T02:39:59;12.40;;;7.40;;
49910;SDS011;35803;53.096;5.844;2024-02-14T02:42:44;12.35;;;7.32;;
49910;SDS011;35803;53.096;5.844;2024-02-14T02:45:30;15.75;;;8.02;;
49910;SDS011;35803;53.096;5.844;2024-02-14T02:48:16;13.70;;;7.43;;
49910;SDS011;35803;53.096;5.844;2024-02-14T02:51:02;14.48;;;8.60;;
49910;SDS011;35803;53.096;5.844;2024-02-14T02:53:47;14.38;;;8.45;;
49910;SDS011;35803;53.096;5.844;2024-02-14T02:56:33;14.65;;;8.48;;
49910;SDS011;35803;53.096;5.844;2024-02-14T02:59:19;14.40;;;7.78;;
49910;SDS011;35803;53.096;5.844;2024-02-14T03:02:05;13.95;;;7.93;;
49910;SDS011;35803;53.096;5.844;2024-02-14T03:04:53;12.00;;;7.18;;
49910;SDS011;35803;53.096;5.844;2024-02-14T03:07:39;10.25;;;6.63;;
49910;SDS011;35803;53.096;5.844;2024-02-14T03:10:26;10.55;;;6.75;;
49910;SDS011;35803;53.096;5.844;2024-02-14T03:13:14;10.93;;;5.93;;
49910;SDS011;35803;53.096;5.844;2024-02-14T03:16:02;11.70;;;6.32;;
49910;SDS011;35803;53.096;5.844;2024-02-14T03:18:49;8.40;;;5.38;;
49910;SDS011;35803;53.096;5.844;2024-02-14T03:21:35;9.00;;;5.65;;
49910;SDS011;35803;53.096;5.844;2024-02-14T03:24:21;9.07;;;5.60;;
49910;SDS011;35803;53.096;5.844;2024-02-14T03:27:07;8.13;;;5.13;;
49910;SDS011;35803;53.096;5.844;2024-02-14T03:29:52;9.63;;;6.35;;
49910;SDS011;35803;53.096;5.844;2024-02-14T03:32:40;10.93;;;6.40;;
49910;SDS011;35803;53.096;5.844;2024-02-14T03:35:26;11.10;;;6.53;;
49910;SDS011;35803;53.096;5.844;2024-02-14T03:38:12;14.02;;;7.18;;
49910;SDS011;35803;53.096;5.844;2024-02-14T03:41:00;10.57;;;6.35;;
49910;SDS011;35803;53.096;5.844;2024-02-14T03:43:45;9.82;;;6.43;;
49910;SDS011;35803;53.096;5.844;2024-02-14T03:46:31;10.60;;;6.18;;
49910;SDS011;35803;53.096;5.844;2024-02-14T03:49:20;9.85;;;6.22;;
49910;SDS011;35803;53.096;5.844;2024-02-14T03:52:06;11.32;;;5.43;;
49910;SDS011;35803;53.096;5.844;2024-02-14T03:54:55;11.52;;;4.78;;
49910;SDS011;35803;53.096;5.844;2024-02-14T03:57:41;6.95;;;4.63;;
49910;SDS011;35803;53.096;5.844;2024-02-14T04:00:27;7.07;;;4.18;;
49910;SDS011;35803;53.096;5.844;2024-02-14T04:03:12;12.30;;;4.60;;
49910;SDS011;35803;53.096;5.844;2024-02-14T04:05:58;8.20;;;4.95;;
49910;SDS011;35803;53.096;5.844;2024-02-14T04:08:44;9.27;;;4.70;;
49910;SDS011;35803;53.096;5.844;2024-02-14T04:11:30;11.20;;;4.95;;
49910;SDS011;35803;53.096;5.844;2024-02-14T04:14:15;9.10;;;4.15;;
49910;SDS011;35803;53.096;5.844;2024-02-14T04:17:01;9.60;;;4.47;;
49910;SDS011;35803;53.096;5.844;2024-02-14T04:19:47;9.55;;;4.18;;
49910;SDS011;35803;53.096;5.844;2024-02-14T04:22:32;9.23;;;4.80;;
49910;SDS011;35803;53.096;5.844;2024-02-14T04:25:18;9.73;;;4.82;;
49910;SDS011;35803;53.096;5.844;2024-02-14T04:28:04;9.75;;;4.35;;
49910;SDS011;35803;53.096;5.844;2024-02-14T04:30:50;12.02;;;4.50;;
49910;SDS011;35803;53.096;5.844;2024-02-14T04:33:36;9.25;;;4.40;;
49910;SDS011;35803;53.096;5.844;2024-02-14T04:36:22;12.23;;;4.38;;
49910;SDS011;35803;53.096;5.844;2024-02-14T04:39:08;15.07;;;4.55;;
49910;SDS011;35803;53.096;5.844;2024-02-14T04:41:54;8.48;;;4.72;;
49910;SDS011;35803;53.096;5.844;2024-02-14T04:44:41;11.63;;;4.75;;
49910;SDS011;35803;53.096;5.844;2024-02-14T04:47:27;15.20;;;5.28;;
49910;SDS011;35803;53.096;5.844;2024-02-14T04:50:15;12.93;;;4.63;;
49910;SDS011;35803;53.096;5.844;2024-02-14T04:53:00;13.50;;;4.05;;
49910;SDS011;35803;53.096;5.844;2024-02-14T04:55:46;11.02;;;3.85;;
49910;SDS011;35803;53.096;5.844;2024-02-14T04:58:32;8.07;;;3.90;;
49910;SDS011;35803;53.096;5.844;2024-02-14T05:01:17;10.82;;;4.10;;
49910;SDS011;35803;53.096;5.844;2024-02-14T05:04:03;12.95;;;4.13;;
49910;SDS011;35803;53.096;5.844;2024-02-14T05:06:49;12.30;;;4.15;;
49910;SDS011;35803;53.096;5.844;2024-02-14T05:09:35;15.35;;;4.55;;
49910;SDS011;35803;53.096;5.844;2024-02-14T05:12:21;10.15;;;3.88;;
49910;SDS011;35803;53.096;5.844;2024-02-14T05:15:06;16.85;;;4.07;;
49910;SDS011;35803;53.096;5.844;2024-02-14T05:17:54;13.30;;;4.40;;
49910;SDS011;35803;53.096;5.844;2024-02-14T05:20:41;22.05;;;4.80;;
49910;SDS011;35803;53.096;5.844;2024-02-14T05:23:27;18.90;;;4.45;;
49910;SDS011;35803;53.096;5.844;2024-02-14T05:26:13;15.45;;;4.88;;
49910;SDS011;35803;53.096;5.844;2024-02-14T05:28:59;25.08;;;5.38;;
49910;SDS011;35803;53.096;5.844;2024-02-14T05:31:45;18.10;;;4.30;;
49910;SDS011;35803;53.096;5.844;2024-02-14T05:34:33;20.75;;;4.45;;
49910;SDS011;35803;53.096;5.844;2024-02-14T05:37:19;18.30;;;3.72;;
49910;SDS011;35803;53.096;5.844;2024-02-14T05:40:05;19.67;;;3.78;;
49910;SDS011;35803;53.096;5.844;2024-02-14T05:42:52;18.25;;;3.80;;
49910;SDS011;35803;53.096;5.844;2024-02-14T05:45:38;21.00;;;4.10;;
49910;SDS011;35803;53.096;5.844;2024-02-14T05:48:24;22.13;;;3.60;;
49910;SDS011;35803;53.096;5.844;2024-02-14T05:51:09;20.52;;;4.30;;
49910;SDS011;35803;53.096;5.844;2024-02-14T05:53:55;25.83;;;3.65;;
49910;SDS011;35803;53.096;5.844;2024-02-14T05:56:41;16.52;;;4.80;;
49910;SDS011;35803;53.096;5.844;2024-02-14T05:59:27;19.13;;;4.68;;
49910;SDS011;35803;53.096;5.844;2024-02-14T06:02:12;22.38;;;4.43;;
49910;SDS011;35803;53.096;5.844;2024-02-14T06:04:58;19.23;;;4.38;;
49910;SDS011;35803;53.096;5.844;2024-02-14T06:07:44;20.75;;;4.18;;
49910;SDS011;35803;53.096;5.844;2024-02-14T06:10:30;26.42;;;4.97;;
49910;SDS011;35803;53.096;5.844;2024-02-14T06:13:16;21.88;;;5.07;;
49910;SDS011;35803;53.096;5.844;2024-02-14T06:16:01;18.73;;;3.85;;
49910;SDS011;35803;53.096;5.844;2024-02-14T06:18:48;21.67;;;4.18;;
49910;SDS011;35803;53.096;5.844;2024-02-14T06:21:33;26.40;;;4.35;;
49910;SDS011;35803;53.096;5.844;2024-02-14T06:24:19;24.42;;;4.07;;
49910;SDS011;35803;53.096;5.844;2024-02-14T06:27:05;22.48;;;3.97;;
49910;SDS011;35803;53.096;5.844;2024-02-14T06:29:51;20.25;;;3.90;;
49910;SDS011;35803;53.096;5.844;2024-02-14T06:32:38;18.48;;;3.97;;
49910;SDS011;35803;53.096;5.844;2024-02-14T06:35:24;25.77;;;3.90;;
49910;SDS011;35803;53.096;5.844;2024-02-14T06:38:10;21.92;;;3.97;;
49910;SDS011;35803;53.096;5.844;2024-02-14T06:40:55;23.77;;;3.75;;
49910;SDS011;35803;53.096;5.844;2024-02-14T06:43:42;26.80;;;3.55;;
49910;SDS011;35803;53.096;5.844;2024-02-14T06:46:27;16.73;;;3.70;;
49910;SDS011;35803;53.096;5.844;2024-02-14T06:49:13;21.08;;;4.07;;
49910;SDS011;35803;53.096;5.844;2024-02-14T06:51:59;21.10;;;3.65;;
49910;SDS011;35803;53.096;5.844;2024-02-14T06:54:45;13.95;;;3.60;;
49910;SDS011;35803;53.096;5.844;2024-02-14T06:57:31;24.33;;;3.50;;
49910;SDS011;35803;53.096;5.844;2024-02-14T07:00:16;26.92;;;3.60;;
49910;SDS011;35803;53.096;5.844;2024-02-14T07:03:02;24.42;;;4.00;;
49910;SDS011;35803;53.096;5.844;2024-02-14T07:05:49;27.83;;;4.57;;
49910;SDS011;35803;53.096;5.844;2024-02-14T07:08:34;23.25;;;3.45;;
49910;SDS011;35803;53.096;5.844;2024-02-14T07:11:20;19.10;;;3.67;;
49910;SDS011;35803;53.096;5.844;2024-02-14T07:14:06;19.83;;;3.63;;
49910;SDS011;35803;53.096;5.844;2024-02-14T07:16:51;20.15;;;3.80;;
49910;SDS011;35803;53.096;5.844;2024-02-14T07:19:37;19.55;;;3.38;;
49910;SDS011;35803;53.096;5.844;2024-02-14T07:22:24;19.92;;;3.50;;
49910;SDS011;35803;53.096;5.844;2024-02-14T07:25:10;23.52;;;3.90;;
49910;SDS011;35803;53.096;5.844;2024-02-14T07:27:56;26.17;;;4.13;;
49910;SDS011;35803;53.096;5.844;2024-02-14T07:30:42;29.77;;;3.67;;
49910;SDS011;35803;53.096;5.844;2024-02-14T07:33:28;22.75;;;3.70;;
49910;SDS011;35803;53.096;5.844;2024-02-14T07:36:14;17.58;;;3.08;;
49910;SDS011;35803;53.096;5.844;2024-02-14T07:39:00;24.85;;;3.90;;
49910;SDS011;35803;53.096;5.844;2024-02-14T07:41:45;24.77;;;3.45;;
49910;SDS011;35803;53.096;5.844;2024-02-14T07:44:31;17.55;;;3.67;;
49910;SDS011;35803;53.096;5.844;2024-02-14T07:47:17;18.45;;;4.30;;
49910;SDS011;35803;53.096;5.844;2024-02-14T07:50:04;20.55;;;4.20;;
49910;SDS011;35803;53.096;5.844;2024-02-14T07:52:50;18.23;;;4.53;;
49910;SDS011;35803;53.096;5.844;2024-02-14T07:55:35;15.95;;;4.60;;
49910;SDS011;35803;53.096;5.844;2024-02-14T07:58:21;16.95;;;4.40;;
49910;SDS011;35803;53.096;5.844;2024-02-14T08:01:07;18.75;;;5.15;;
49910;SDS011;35803;53.096;5.844;2024-02-14T08:03:53;21.58;;;4.90;;
49910;SDS011;35803;53.096;5.844;2024-02-14T08:06:39;17.30;;;4.10;;
49910;SDS011;35803;53.096;5.844;2024-02-14T08:09:25;28.27;;;4.78;;
49910;SDS011;35803;53.096;5.844;2024-02-14T08:12:11;24.33;;;5.10;;
49910;SDS011;35803;53.096;5.844;2024-02-14T08:14:57;21.13;;;5.05;;
49910;SDS011;35803;53.096;5.844;2024-02-14T08:17:42;18.92;;;4.88;;
49910;SDS011;35803;53.096;5.844;2024-02-14T08:20:28;24.83;;;5.45;;
49910;SDS011;35803;53.096;5.844;2024-02-14T08:23:14;23.45;;;5.45;;
49910;SDS011;35803;53.096;5.844;2024-02-14T08:26:00;17.55;;;4.97;;
49910;SDS011;35803;53.096;5.844;2024-02-14T08:28:46;21.23;;;5.60;;
49910;SDS011;35803;53.096;5.844;2024-02-14T08:31:32;29.60;;;6.22;;
49910;SDS011;35803;53.096;5.844;2024-02-14T08:34:18;18.20;;;5.38;;
49910;SDS011;35803;53.096;5.844;2024-02-14T08:37:04;22.60;;;5.68;;
49910;SDS011;35803;53.096;5.844;2024-02-14T08:39:50;22.73;;;5.85;;
49910;SDS011;35803;53.096;5.844;2024-02-14T08:42:36;22.50;;;6.50;;
49910;SDS011;35803;53.096;5.844;2024-02-14T08:45:22;21.17;;;6.97;;
49910;SDS011;35803;53.096;5.844;2024-02-14T08:48:08;19.58;;;6.47;;
49910;SDS011;35803;53.096;5.844;2024-02-14T08:50:54;25.02;;;6.10;;
49910;SDS011;35803;53.096;5.844;2024-02-14T08:53:40;20.50;;;6.40;;
49910;SDS011;35803;53.096;5.844;2024-02-14T08:56:29;23.25;;;5.72;;
49910;SDS011;35803;53.096;5.844;2024-02-14T08:59:17;32.00;;;6.60;;
49910;SDS011;35803;53.096;5.844;2024-02-14T09:02:03;22.65;;;5.88;;
49910;SDS011;35803;53.096;5.844;2024-02-14T09:04:49;21.05;;;5.22;;
49910;SDS011;35803;53.096;5.844;2024-02-14T09:07:35;20.02;;;5.22;;
49910;SDS011;35803;53.096;5.844;2024-02-14T09:10:22;17.73;;;5.38;;
49910;SDS011;35803;53.096;5.844;2024-02-14T09:13:08;18.13;;;5.10;;
49910;SDS011;35803;53.096;5.844;2024-02-14T09:15:55;19.52;;;5.15;;
49910;SDS011;35803;53.096;5.844;2024-02-14T09:18:41;14.55;;;5.70;;
49910;SDS011;35803;53.096;5.844;2024-02-14T09:21:27;17.25;;;6.40;;
49910;SDS011;35803;53.096;5.844;2024-02-14T09:24:13;17.05;;;6.28;;
49910;SDS011;35803;53.096;5.844;2024-02-14T09:26:59;21.92;;;6.78;;
49910;SDS011;35803;53.096;5.844;2024-02-14T09:29:47;23.38;;;6.72;;
49910;SDS011;35803;53.096;5.844;2024-02-14T09:32:33;17.00;;;7.22;;
49910;SDS011;35803;53.096;5.844;2024-02-14T09:35:19;29.88;;;8.25;;
49910;SDS011;35803;53.096;5.844;2024-02-14T09:38:04;21.15;;;7.38;;
49910;SDS011;35803;53.096;5.844;2024-02-14T09:40:52;22.05;;;7.80;;
49910;SDS011;35803;53.096;5.844;2024-02-14T09:43:39;22.52;;;8.10;;
49910;SDS011;35803;53.096;5.844;2024-02-14T09:46:29;20.73;;;7.72;;
49910;SDS011;35803;53.096;5.844;2024-02-14T09:49:17;22.67;;;8.35;;
49910;SDS011;35803;53.096;5.844;2024-02-14T09:52:04;22.38;;;8.48;;
49910;SDS011;35803;53.096;5.844;2024-02-14T09:54:51;15.82;;;7.60;;
49910;SDS011;35803;53.096;5.844;2024-02-14T09:57:38;21.98;;;7.93;;
49910;SDS011;35803;53.096;5.844;2024-02-14T10:00:27;14.02;;;6.93;;
49910;SDS011;35803;53.096;5.844;2024-02-14T10:03:13;15.52;;;6.72;;
49910;SDS011;35803;53.096;5.844;2024-02-14T10:05:59;14.80;;;7.40;;
49910;SDS011;35803;53.096;5.844;2024-02-14T10:08:44;20.30;;;7.30;;
49910;SDS011;35803;53.096;5.844;2024-02-14T10:11:31;18.23;;;7.35;;
49910;SDS011;35803;53.096;5.844;2024-02-14T10:14:18;15.20;;;6.72;;
49910;SDS011;35803;53.096;5.844;2024-02-14T10:17:04;23.13;;;6.55;;
49910;SDS011;35803;53.096;5.844;2024-02-14T10:19:56;17.63;;;6.57;;
49910;SDS011;35803;53.096;5.844;2024-02-14T10:22:43;17.95;;;7.03;;
49910;SDS011;35803;53.096;5.844;2024-02-14T10:25:31;18.63;;;6.30;;
49910;SDS011;35803;53.096;5.844;2024-02-14T10:28:17;20.05;;;7.22;;
49910;SDS011;35803;53.096;5.844;2024-02-14T10:31:05;16.25;;;7.63;;
49910;SDS011;35803;53.096;5.844;2024-02-14T10:33:51;21.05;;;8.23;;
49910;SDS011;35803;53.096;5.844;2024-02-14T10:36:38;20.10;;;8.70;;
49910;SDS011;35803;53.096;5.844;2024-02-14T10:39:25;18.20;;;7.65;;
49910;SDS011;35803;53.096;5.844;2024-02-14T10:42:12;14.45;;;7.00;;
49910;SDS011;35803;53.096;5.844;2024-02-14T10:45:01;14.13;;;6.60;;
49910;SDS011;35803;53.096;5.844;2024-02-14T10:47:48;14.05;;;7.10;;
49910;SDS011;35803;53.096;5.844;2024-02-14T10:50:36;20.10;;;9.48;;
49910;SDS011;35803;53.096;5.844;2024-02-14T10:53:27;16.23;;;6.45;;
49910;SDS011;35803;53.096;5.844;2024-02-14T10:56:16;16.75;;;6.13;;
49910;SDS011;35803;53.096;5.844;2024-02-14T10:59:06;12.80;;;6.28;;
49910;SDS011;35803;53.096;5.844;2024-02-14T11:01:54;14.05;;;6.75;;
49910;SDS011;35803;53.096;5.844;2024-02-14T11:04:40;14.10;;;6.60;;
49910;SDS011;35803;53.096;5.844;2024-02-14T11:07:29;11.90;;;5.35;;
49910;SDS011;35803;53.096;5.844;2024-02-14T11:10:16;13.13;;;6.18;;
49910;SDS011;35803;53.096;5.844;2024-02-14T11:13:02;11.50;;;6.35;;
49910;SDS011;35803;53.096;5.844;2024-02-14T11:15:51;12.52;;;5.80;;
49910;SDS011;35803;53.096;5.844;2024-02-14T11:18:40;15.70;;;6.05;;
49910;SDS011;35803;53.096;5.844;2024-02-14T11:21:27;14.25;;;5.95;;
49910;SDS011;35803;53.096;5.844;2024-02-14T11:24:15;15.45;;;6.40;;
49910;SDS011;35803;53.096;5.844;2024-02-14T11:27:01;12.30;;;5.72;;
49910;SDS011;35803;53.096;5.844;2024-02-14T11:29:51;10.25;;;6.00;;
49910;SDS011;35803;53.096;5.844;2024-02-14T11:32:39;15.25;;;6.68;;
49910;SDS011;35803;53.096;5.844;2024-02-14T11:35:27;12.73;;;6.90;;
49910;SDS011;35803;53.096;5.844;2024-02-14T11:38:13;11.68;;;5.78;;
49910;SDS011;35803;53.096;5.844;2024-02-14T11:40:59;7.43;;;4.63;;
49910;SDS011;35803;53.096;5.844;2024-02-14T11:43:51;7.75;;;4.97;;
49910;SDS011;35803;53.096;5.844;2024-02-14T11:46:37;8.50;;;5.07;;
49910;SDS011;35803;53.096;5.844;2024-02-14T11:49:23;11.23;;;5.40;;
49910;SDS011;35803;53.096;5.844;2024-02-14T11:52:11;11.30;;;5.43;;
49910;SDS011;35803;53.096;5.844;2024-02-14T11:54:58;7.45;;;4.50;;
49910;SDS011;35803;53.096;5.844;2024-02-14T11:57:45;8.52;;;4.57;;
49910;SDS011;35803;53.096;5.844;2024-02-14T12:00:33;11.65;;;5.00;;
49910;SDS011;35803;53.096;5.844;2024-02-14T12:03:24;9.50;;;4.93;;
49910;SDS011;35803;53.096;5.844;2024-02-14T12:06:11;10.57;;;5.60;;
49910;SDS011;35803;53.096;5.844;2024-02-14T12:08:57;13.40;;;5.95;;
49910;SDS011;35803;53.096;5.844;2024-02-14T12:11:46;9.98;;;4.78;;
49910;SDS011;35803;53.096;5.844;2024-02-14T12:14:32;11.30;;;5.53;;
49910;SDS011;35803;53.096;5.844;2024-02-14T12:17:18;10.88;;;6.07;;
49910;SDS011;35803;53.096;5.844;2024-02-14T12:20:10;16.52;;;7.78;;
49910;SDS011;35803;53.096;5.844;2024-02-14T12:22:58;12.82;;;6.55;;
49910;SDS011;35803;53.096;5.844;2024-02-14T12:25:45;12.02;;;7.05;;
49910;SDS011;35803;53.096;5.844;2024-02-14T12:28:34;10.90;;;5.20;;
49910;SDS011;35803;53.096;5.844;2024-02-14T12:31:22;9.70;;;5.40;;
49910;SDS011;35803;53.096;5.844;2024-02-14T12:34:10;9.40;;;5.25;;
49910;SDS011;35803;53.096;5.844;2024-02-14T12:36:56;10.07;;;5.30;;
49910;SDS011;35803;53.096;5.844;2024-02-14T12:39:42;8.75;;;5.07;;
49910;SDS011;35803;53.096;5.844;2024-02-14T12:42:27;11.80;;;4.88;;
49910;SDS011;35803;53.096;5.844;2024-02-14T12:45:13;12.15;;;6.03;;
49910;SDS011;35803;53.096;5.844;2024-02-14T12:47:59;14.30;;;6.05;;
49910;SDS011;35803;53.096;5.844;2024-02-14T12:50:45;14.40;;;6.00;;
49910;SDS011;35803;53.096;5.844;2024-02-14T12:53:34;10.57;;;5.78;;
49910;SDS011;35803;53.096;5.844;2024-02-14T12:56:19;11.70;;;6.03;;
49910;SDS011;35803;53.096;5.844;2024-02-14T12:59:05;11.43;;;5.82;;
49910;SDS011;35803;53.096;5.844;2024-02-14T13:01:51;15.60;;;6.55;;
49910;SDS011;35803;53.096;5.844;2024-02-14T13:04:37;13.45;;;6.70;;
49910;SDS011;35803;53.096;5.844;2024-02-14T13:07:24;16.15;;;7.38;;
49910;SDS011;35803;53.096;5.844;2024-02-14T13:10:10;14.88;;;7.55;;
49910;SDS011;35803;53.096;5.844;2024-02-14T13:12:56;16.20;;;7.00;;
49910;SDS011;35803;53.096;5.844;2024-02-14T13:15:43;15.88;;;7.32;;
49910;SDS011;35803;53.096;5.844;2024-02-14T13:18:30;14.63;;;6.18;;
49910;SDS011;35803;53.096;5.844;2024-02-14T13:21:15;14.85;;;6.68;;
49910;SDS011;35803;53.096;5.844;2024-02-14T13:24:02;9.70;;;5.75;;
49910;SDS011;35803;53.096;5.844;2024-02-14T13:26:49;11.85;;;6.20;;
49910;SDS011;35803;53.096;5.844;2024-02-14T13:29:35;12.98;;;6.25;;
49910;SDS011;35803;53.096;5.844;2024-02-14T13:32:20;12.85;;;6.38;;
49910;SDS011;35803;53.096;5.844;2024-02-14T13:35:06;12.70;;;7.53;;
49910;SDS011;35803;53.096;5.844;2024-02-14T13:37:52;13.43;;;7.22;;
49910;SDS011;35803;53.096;5.844;2024-02-14T13:40:38;17.20;;;8.48;;
49910;SDS011;35803;53.096;5.844;2024-02-14T13:43:24;13.38;;;7.50;;
49910;SDS011;35803;53.096;5.844;2024-02-14T13:46:10;16.10;;;8.38;;
49910;SDS011;35803;53.096;5.844;2024-02-14T13:48:56;10.38;;;5.97;;
49910;SDS011;35803;53.096;5.844;2024-02-14T13:51:42;12.25;;;6.43;;
49910;SDS011;35803;53.096;5.844;2024-02-14T13:54:28;12.93;;;7.20;;
49910;SDS011;35803;53.096;5.844;2024-02-14T13:57:13;11.05;;;6.03;;
49910;SDS011;35803;53.096;5.844;2024-02-14T13:59:59;8.38;;;5.13;;
49910;SDS011;35803;53.096;5.844;2024-02-14T14:02:45;10.77;;;4.57;;
49910;SDS011;35803;53.096;5.844;2024-02-14T14:05:31;6.03;;;3.63;;
49910;SDS011;35803;53.096;5.844;2024-02-14T14:08:17;5.63;;;3.80;;
49910;SDS011;35803;53.096;5.844;2024-02-14T14:11:03;7.13;;;3.67;;
49910;SDS011;35803;53.096;5.844;2024-02-14T14:13:49;6.40;;;3.88;;
49910;SDS011;35803;53.096;5.844;2024-02-14T14:16:34;4.22;;;3.00;;
49910;SDS011;35803;53.096;5.844;2024-02-14T14:19:20;4.95;;;3.42;;
49910;SDS011;35803;53.096;5.844;2024-02-14T14:22:06;5.65;;;3.67;;
49910;SDS011;35803;53.096;5.844;2024-02-14T14:24:52;4.38;;;3.17;;
49910;SDS011;35803;53.096;5.844;2024-02-14T14:27:38;4.93;;;3.38;;
49910;SDS011;35803;53.096;5.844;2024-02-14T14:30:24;5.63;;;3.63;;
49910;SDS011;35803;53.096;5.844;2024-02-14T14:33:10;5.68;;;3.80;;
49910;SDS011;35803;53.096;5.844;2024-02-14T14:35:56;5.72;;;3.83;;
49910;SDS011;35803;53.096;5.844;2024-02-14T14:38:42;7.57;;;4.75;;
49910;SDS011;35803;53.096;5.844;2024-02-14T14:41:28;9.30;;;5.45;;
49910;SDS011;35803;53.096;5.844;2024-02-14T14:44:14;8.02;;;5.45;;
49910;SDS011;35803;53.096;5.844;2024-02-14T14:47:00;9.57;;;5.72;;
49910;SDS011;35803;53.096;5.844;2024-02-14T14:49:46;10.45;;;6.18;;
49910;SDS011;35803;53.096;5.844;2024-02-14T14:52:31;11.90;;;6.63;;
49910;SDS011;35803;53.096;5.844;2024-02-14T14:55:17;10.93;;;7.07;;
49910;SDS011;35803;53.096;5.844;2024-02-14T14:58:11;12.02;;;7.32;;
49910;SDS011;35803;53.096;5.844;2024-02-14T15:00:58;11.55;;;6.47;;
49910;SDS011;35803;53.096;5.844;2024-02-14T15:03:44;11.45;;;7.38;;
49910;SDS011;35803;53.096;5.844;2024-02-14T15:06:30;12.57;;;7.35;;
49910;SDS011;35803;53.096;5.844;2024-02-14T15:09:16;11.43;;;6.95;;
49910;SDS011;35803;53.096;5.844;2024-02-14T15:12:02;10.95;;;7.28;;
49910;SDS011;35803;53.096;5.844;2024-02-14T15:14:48;12.45;;;7.40;;
49910;SDS011;35803;53.096;5.844;2024-02-14T15:17:33;12.32;;;7.63;;
49910;SDS011;35803;53.096;5.844;2024-02-14T15:20:20;12.02;;;7.03;;
49910;SDS011;35803;53.096;5.844;2024-02-14T15:23:06;13.38;;;8.20;;
49910;SDS011;35803;53.096;5.844;2024-02-14T15:25:52;12.80;;;7.70;;
49910;SDS011;35803;53.096;5.844;2024-02-14T15:28:47;14.55;;;7.97;;
49910;SDS011;35803;53.096;5.844;2024-02-14T15:31:41;14.68;;;7.80;;
49910;SDS011;35803;53.096;5.844;2024-02-14T15:34:45;12.05;;;6.75;;
49910;SDS011;35803;53.096;5.844;2024-02-14T15:37:31;12.95;;;7.22;;
49910;SDS011;35803;53.096;5.844;2024-02-14T15:40:16;10.30;;;7.18;;
49910;SDS011;35803;53.096;5.844;2024-02-14T15:43:02;12.90;;;7.07;;
49910;SDS011;35803;53.096;5.844;2024-02-14T15:45:49;11.23;;;7.20;;
49910;SDS011;35803;53.096;5.844;2024-02-14T15:48:34;12.00;;;7.50;;
49910;SDS011;35803;53.096;5.844;2024-02-14T15:51:20;15.05;;;7.78;;
49910;SDS011;35803;53.096;5.844;2024-02-14T15:54:08;20.27;;;8.00;;
49910;SDS011;35803;53.096;5.844;2024-02-14T15:56:55;11.23;;;7.07;;
49910;SDS011;35803;53.096;5.844;2024-02-14T15:59:40;13.07;;;7.75;;
49910;SDS011;35803;53.096;5.844;2024-02-14T16:02:26;12.98;;;7.30;;
49910;SDS011;35803;53.096;5.844;2024-02-14T16:05:12;14.45;;;7.93;;
49910;SDS011;35803;53.096;5.844;2024-02-14T16:07:58;12.30;;;7.53;;
49910;SDS011;35803;53.096;5.844;2024-02-14T16:10:44;16.75;;;9.35;;
49910;SDS011;35803;53.096;5.844;2024-02-14T16:13:30;17.98;;;8.65;;
49910;SDS011;35803;53.096;5.844;2024-02-14T16:16:15;15.10;;;8.32;;
49910;SDS011;35803;53.096;5.844;2024-02-14T16:19:01;15.55;;;8.77;;
49910;SDS011;35803;53.096;5.844;2024-02-14T16:21:48;20.85;;;10.23;;
49910;SDS011;35803;53.096;5.844;2024-02-14T16:24:34;21.58;;;10.55;;
49910;SDS011;35803;53.096;5.844;2024-02-14T16:27:19;19.27;;;9.82;;
49910;SDS011;35803;53.096;5.844;2024-02-14T16:30:06;18.23;;;8.82;;